sensor_id;sensor_type;location;lat;lon;timestamp;pressure;altitude;pressure_sealevel;temperature;humidity
81802;BME280;71199;52.490;5.448;2023-09-19T00:01:07;100734.00;;;13.46;77.03
81802;BME280;71199;52.490;5.448;2023-09-19T00:03:37;100735.84;;;13.39;77.97
81802;BME280;71199;52.490;5.448;2023-09-19T00:06:03;100735.06;;;13.30;78.56
81802;BME280;71199;52.490;5.448;2023-09-19T00:08:30;100746.47;;;13.27;79.69
81802;BME280;71199;52.490;5.448;2023-09-19T00:10:56;100746.97;;;13.16;80.95
81802;BME280;71199;52.490;5.448;2023-09-19T00:13:21;100756.03;;;13.09;81.02
81802;BME280;71199;52.490;5.448;2023-09-19T00:15:48;100744.91;;;13.03;81.32
81802;BME280;71199;52.490;5.448;2023-09-19T00:18:14;100748.25;;;12.98;81.48
81802;BME280;71199;52.490;5.448;2023-09-19T00:20:40;100758.44;;;12.98;81.32
81802;BME280;71199;52.490;5.448;2023-09-19T00:23:07;100751.38;;;12.80;82.68
81802;BME280;71199;52.490;5.448;2023-09-19T00:25:36;100757.38;;;12.69;83.17
81802;BME280;71199;52.490;5.448;2023-09-19T00:28:03;100770.31;;;12.68;83.98
81802;BME280;71199;52.490;5.448;2023-09-19T00:30:29;100758.81;;;12.65;84.24
81802;BME280;71199;52.490;5.448;2023-09-19T00:32:55;100760.91;;;12.63;84.38
81802;BME280;71199;52.490;5.448;2023-09-19T00:35:21;100768.69;;;12.59;84.99
81802;BME280;71199;52.490;5.448;2023-09-19T00:37:50;100774.00;;;12.61;84.73
81802;BME280;71199;52.490;5.448;2023-09-19T00:40:16;100774.38;;;12.58;84.93
81802;BME280;71199;52.490;5.448;2023-09-19T00:42:46;100766.19;;;12.49;86.17
81802;BME280;71199;52.490;5.448;2023-09-19T00:45:13;100769.63;;;12.52;86.13
81802;BME280;71199;52.490;5.448;2023-09-19T00:47:43;100772.50;;;12.58;86.39
81802;BME280;71199;52.490;5.448;2023-09-19T00:50:11;100780.09;;;12.71;85.95
81802;BME280;71199;52.490;5.448;2023-09-19T00:52:40;100769.47;;;12.83;84.67
81802;BME280;71199;52.490;5.448;2023-09-19T00:55:08;100780.59;;;12.89;84.13
81802;BME280;71199;52.490;5.448;2023-09-19T00:57:34;100778.94;;;12.80;85.10
81802;BME280;71199;52.490;5.448;2023-09-19T01:00:02;100784.38;;;12.74;85.36
81802;BME280;71199;52.490;5.448;2023-09-19T01:02:36;100791.31;;;12.69;85.39
81802;BME280;71199;52.490;5.448;2023-09-19T01:05:02;100782.56;;;12.66;86.00
81802;BME280;71199;52.490;5.448;2023-09-19T01:07:30;100790.38;;;12.62;86.15
81802;BME280;71199;52.490;5.448;2023-09-19T01:09:57;100785.13;;;12.53;87.17
81802;BME280;71199;52.490;5.448;2023-09-19T01:18:43;100787.66;;;12.39;85.98
81802;BME280;71199;52.490;5.448;2023-09-19T01:21:13;100784.16;;;12.45;85.06
81802;BME280;71199;52.490;5.448;2023-09-19T01:26:45;100793.97;;;12.48;84.55
81802;BME280;71199;52.490;5.448;2023-09-19T01:29:38;100796.06;;;12.61;83.79
81802;BME280;71199;52.490;5.448;2023-09-19T01:32:06;100789.78;;;12.67;83.41
81802;BME280;71199;52.490;5.448;2023-09-19T01:34:45;100794.47;;;12.66;83.03
81802;BME280;71199;52.490;5.448;2023-09-19T01:37:12;100792.91;;;12.64;83.78
81802;BME280;71199;52.490;5.448;2023-09-19T01:39:40;100801.28;;;12.56;83.95
81802;BME280;71199;52.490;5.448;2023-09-19T01:45:18;100794.88;;;12.40;85.05
81802;BME280;71199;52.490;5.448;2023-09-19T01:47:52;100798.97;;;12.44;84.58
81802;BME280;71199;52.490;5.448;2023-09-19T01:50:59;100803.16;;;12.40;84.65
81802;BME280;71199;52.490;5.448;2023-09-19T01:53:33;100804.06;;;12.33;85.17
81802;BME280;71199;52.490;5.448;2023-09-19T01:56:01;100796.00;;;12.31;86.03
81802;BME280;71199;52.490;5.448;2023-09-19T02:00:58;100799.13;;;12.28;86.33
81802;BME280;71199;52.490;5.448;2023-09-19T02:03:25;100788.19;;;12.20;87.08
81802;BME280;71199;52.490;5.448;2023-09-19T02:05:52;100780.94;;;12.19;86.90
81802;BME280;71199;52.490;5.448;2023-09-19T02:08:20;100789.53;;;12.24;87.05
81802;BME280;71199;52.490;5.448;2023-09-19T02:10:46;100785.34;;;12.28;87.45
81802;BME280;71199;52.490;5.448;2023-09-19T02:13:24;100790.47;;;12.31;87.03
81802;BME280;71199;52.490;5.448;2023-09-19T02:15:53;100790.22;;;12.41;86.65
81802;BME280;71199;52.490;5.448;2023-09-19T02:18:18;100793.16;;;12.39;86.78
81802;BME280;71199;52.490;5.448;2023-09-19T02:20:45;100799.66;;;12.46;86.11
81802;BME280;71199;52.490;5.448;2023-09-19T02:23:11;100793.88;;;12.56;86.21
81802;BME280;71199;52.490;5.448;2023-09-19T02:25:39;100797.97;;;12.75;84.34
81802;BME280;71199;52.490;5.448;2023-09-19T02:28:05;100794.47;;;12.81;84.01
81802;BME280;71199;52.490;5.448;2023-09-19T02:30:31;100801.50;;;12.84;84.45
81802;BME280;71199;52.490;5.448;2023-09-19T02:32:57;100806.66;;;12.87;85.03
81802;BME280;71199;52.490;5.448;2023-09-19T02:35:22;100794.66;;;12.95;84.55
81802;BME280;71199;52.490;5.448;2023-09-19T02:37:48;100808.63;;;13.08;84.76
81802;BME280;71199;52.490;5.448;2023-09-19T02:40:14;100809.78;;;12.99;86.15
81802;BME280;71199;52.490;5.448;2023-09-19T02:42:53;100805.22;;;12.91;86.82
81802;BME280;71199;52.490;5.448;2023-09-19T02:45:19;100808.94;;;12.83;87.03
81802;BME280;71199;52.490;5.448;2023-09-19T02:47:45;100815.28;;;12.84;86.91
81802;BME280;71199;52.490;5.448;2023-09-19T02:50:12;100817.00;;;12.85;86.90
81802;BME280;71199;52.490;5.448;2023-09-19T02:52:41;100811.59;;;12.77;88.15
81802;BME280;71199;52.490;5.448;2023-09-19T02:55:08;100806.16;;;12.68;88.12
81802;BME280;71199;52.490;5.448;2023-09-19T02:57:35;100816.03;;;12.63;89.59
81802;BME280;71199;52.490;5.448;2023-09-19T03:00:02;100811.19;;;12.65;89.04
81802;BME280;71199;52.490;5.448;2023-09-19T03:02:28;100793.78;;;12.64;88.51
81802;BME280;71199;52.490;5.448;2023-09-19T03:04:54;100802.44;;;12.61;88.67
81802;BME280;71199;52.490;5.448;2023-09-19T03:07:19;100794.91;;;12.55;88.51
81802;BME280;71199;52.490;5.448;2023-09-19T03:09:44;100796.81;;;12.55;88.22
81802;BME280;71199;52.490;5.448;2023-09-19T03:12:10;100799.66;;;12.46;89.09
81802;BME280;71199;52.490;5.448;2023-09-19T03:14:36;100787.28;;;12.42;88.68
81802;BME280;71199;52.490;5.448;2023-09-19T03:17:01;100781.28;;;12.39;88.97
81802;BME280;71199;52.490;5.448;2023-09-19T03:19:30;100787.38;;;12.34;89.14
81802;BME280;71199;52.490;5.448;2023-09-19T03:21:58;100774.81;;;12.32;89.75
81802;BME280;71199;52.490;5.448;2023-09-19T03:24:24;100783.09;;;12.32;89.19
81802;BME280;71199;52.490;5.448;2023-09-19T03:26:49;100785.94;;;12.38;88.50
81802;BME280;71199;52.490;5.448;2023-09-19T03:29:14;100792.31;;;12.39;88.47
81802;BME280;71199;52.490;5.448;2023-09-19T03:31:41;100790.63;;;12.38;88.73
81802;BME280;71199;52.490;5.448;2023-09-19T03:34:06;100781.09;;;12.40;88.46
81802;BME280;71199;52.490;5.448;2023-09-19T03:36:35;100786.97;;;12.37;88.61
81802;BME280;71199;52.490;5.448;2023-09-19T03:39:01;100794.03;;;12.40;88.85
81802;BME280;71199;52.490;5.448;2023-09-19T03:41:30;100789.00;;;12.43;89.08
81802;BME280;71199;52.490;5.448;2023-09-19T03:43:56;100789.56;;;12.54;88.77
81802;BME280;71199;52.490;5.448;2023-09-19T03:46:21;100789.31;;;12.63;87.59
81802;BME280;71199;52.490;5.448;2023-09-19T03:48:47;100792.47;;;12.75;87.13
81802;BME280;71199;52.490;5.448;2023-09-19T03:51:12;100796.66;;;12.86;86.41
81802;BME280;71199;52.490;5.448;2023-09-19T03:53:38;100800.06;;;12.88;86.04
81802;BME280;71199;52.490;5.448;2023-09-19T03:56:03;100805.22;;;12.91;86.16
81802;BME280;71199;52.490;5.448;2023-09-19T03:58:28;100805.78;;;12.86;85.49
81802;BME280;71199;52.490;5.448;2023-09-19T04:00:57;100812.03;;;12.80;86.07
81802;BME280;71199;52.490;5.448;2023-09-19T04:03:23;100800.75;;;12.75;86.59
81802;BME280;71199;52.490;5.448;2023-09-19T04:05:50;100803.97;;;12.79;86.13
81802;BME280;71199;52.490;5.448;2023-09-19T04:08:15;100815.88;;;12.79;85.81
81802;BME280;71199;52.490;5.448;2023-09-19T04:10:42;100829.84;;;12.78;86.53
81802;BME280;71199;52.490;5.448;2023-09-19T04:13:08;100823.94;;;12.81;85.84
81802;BME280;71199;52.490;5.448;2023-09-19T04:15:34;100820.03;;;12.75;86.56
81802;BME280;71199;52.490;5.448;2023-09-19T04:17:59;100828.69;;;12.72;86.59
81802;BME280;71199;52.490;5.448;2023-09-19T04:20:25;100829.16;;;12.76;86.11
81802;BME280;71199;52.490;5.448;2023-09-19T04:22:50;100832.31;;;12.73;86.70
81802;BME280;71199;52.490;5.448;2023-09-19T04:25:16;100831.16;;;12.67;87.42
81802;BME280;71199;52.490;5.448;2023-09-19T04:27:44;100837.59;;;12.59;87.28
81802;BME280;71199;52.490;5.448;2023-09-19T04:30:09;100843.50;;;12.56;87.06
81802;BME280;71199;52.490;5.448;2023-09-19T04:32:36;100857.81;;;12.52;86.96
81802;BME280;71199;52.490;5.448;2023-09-19T04:35:07;100855.72;;;12.54;86.87
81802;BME280;71199;52.490;5.448;2023-09-19T04:37:38;100856.78;;;12.53;86.85
81802;BME280;71199;52.490;5.448;2023-09-19T04:40:08;100859.78;;;12.43;87.34
81802;BME280;71199;52.490;5.448;2023-09-19T04:42:45;100852.09;;;12.38;88.06
81802;BME280;71199;52.490;5.448;2023-09-19T04:45:11;100855.41;;;12.34;87.86
81802;BME280;71199;52.490;5.448;2023-09-19T04:47:40;100859.84;;;12.35;88.04
81802;BME280;71199;52.490;5.448;2023-09-19T04:50:07;100861.44;;;12.29;88.08
81802;BME280;71199;52.490;5.448;2023-09-19T04:52:33;100860.25;;;12.32;88.23
81802;BME280;71199;52.490;5.448;2023-09-19T04:54:58;100852.44;;;12.35;88.35
81802;BME280;71199;52.490;5.448;2023-09-19T04:57:24;100852.09;;;12.38;88.39
81802;BME280;71199;52.490;5.448;2023-09-19T04:59:50;100850.28;;;12.45;88.22
81802;BME280;71199;52.490;5.448;2023-09-19T05:02:16;100850.03;;;12.55;87.72
81802;BME280;71199;52.490;5.448;2023-09-19T05:04:41;100862.22;;;12.61;87.53
81802;BME280;71199;52.490;5.448;2023-09-19T05:07:06;100867.34;;;12.64;87.80
81802;BME280;71199;52.490;5.448;2023-09-19T05:09:32;100865.41;;;12.73;87.23
81802;BME280;71199;52.490;5.448;2023-09-19T05:11:59;100863.41;;;12.81;87.36
81802;BME280;71199;52.490;5.448;2023-09-19T05:14:25;100865.59;;;12.86;86.74
81802;BME280;71199;52.490;5.448;2023-09-19T05:16:50;100869.50;;;12.92;86.95
81802;BME280;71199;52.490;5.448;2023-09-19T05:19:16;100868.09;;;12.96;87.00
81802;BME280;71199;52.490;5.448;2023-09-19T05:21:42;100868.28;;;12.94;87.34
81802;BME280;71199;52.490;5.448;2023-09-19T05:24:07;100856.00;;;12.97;87.08
81802;BME280;71199;52.490;5.448;2023-09-19T05:26:33;100860.56;;;13.04;86.93
81802;BME280;71199;52.490;5.448;2023-09-19T05:28:58;100865.91;;;13.06;86.73
81802;BME280;71199;52.490;5.448;2023-09-19T05:31:24;100868.47;;;13.07;86.64
81802;BME280;71199;52.490;5.448;2023-09-19T05:33:50;100868.47;;;13.07;86.71
81802;BME280;71199;52.490;5.448;2023-09-19T05:36:16;100871.91;;;13.09;86.40
81802;BME280;71199;52.490;5.448;2023-09-19T05:38:42;100871.50;;;13.13;85.63
81802;BME280;71199;52.490;5.448;2023-09-19T05:41:08;100874.28;;;13.13;86.32
81802;BME280;71199;52.490;5.448;2023-09-19T05:43:39;100879.13;;;13.10;86.71
81802;BME280;71199;52.490;5.448;2023-09-19T05:46:06;100869.44;;;13.15;85.97
81802;BME280;71199;52.490;5.448;2023-09-19T05:48:33;100880.94;;;13.18;86.29
81802;BME280;71199;52.490;5.448;2023-09-19T05:50:58;100884.47;;;13.27;85.89
81802;BME280;71199;52.490;5.448;2023-09-19T05:53:24;100880.63;;;13.28;85.88
81802;BME280;71199;52.490;5.448;2023-09-19T05:55:49;100886.75;;;13.23;86.34
81802;BME280;71199;52.490;5.448;2023-09-19T05:58:15;100889.00;;;13.20;86.39
81802;BME280;71199;52.490;5.448;2023-09-19T06:00:42;100887.13;;;13.20;86.42
81802;BME280;71199;52.490;5.448;2023-09-19T06:03:09;100885.78;;;13.16;86.56
81802;BME280;71199;52.490;5.448;2023-09-19T06:05:37;100884.91;;;13.16;86.93
81802;BME280;71199;52.490;5.448;2023-09-19T06:08:07;100885.97;;;13.15;86.38
81802;BME280;71199;52.490;5.448;2023-09-19T06:10:33;100890.44;;;13.16;86.68
81802;BME280;71199;52.490;5.448;2023-09-19T06:13:00;100892.16;;;13.17;87.29
81802;BME280;71199;52.490;5.448;2023-09-19T06:15:25;100898.97;;;13.29;85.52
81802;BME280;71199;52.490;5.448;2023-09-19T06:17:53;100897.06;;;13.29;86.37
81802;BME280;71199;52.490;5.448;2023-09-19T06:20:22;100887.91;;;13.29;86.07
81802;BME280;71199;52.490;5.448;2023-09-19T06:22:48;100890.28;;;13.32;86.56
81802;BME280;71199;52.490;5.448;2023-09-19T06:25:15;100889.06;;;13.35;86.18
81802;BME280;71199;52.490;5.448;2023-09-19T06:27:53;100872.50;;;13.49;85.62
81802;BME280;71199;52.490;5.448;2023-09-19T06:30:20;100874.44;;;13.70;85.12
81802;BME280;71199;52.490;5.448;2023-09-19T06:32:46;100866.59;;;13.89;84.67
81802;BME280;71199;52.490;5.448;2023-09-19T06:35:15;100876.09;;;14.01;83.58
81802;BME280;71199;52.490;5.448;2023-09-19T06:37:42;100878.91;;;14.08;83.18
81802;BME280;71199;52.490;5.448;2023-09-19T06:42:43;100876.38;;;14.28;81.92
81802;BME280;71199;52.490;5.448;2023-09-19T06:45:10;100883.81;;;14.27;81.59
81802;BME280;71199;52.490;5.448;2023-09-19T06:47:38;100883.69;;;14.36;81.51
81802;BME280;71199;52.490;5.448;2023-09-19T06:50:04;100886.38;;;14.50;81.36
81802;BME280;71199;52.490;5.448;2023-09-19T06:52:31;100891.06;;;14.50;81.46
81802;BME280;71199;52.490;5.448;2023-09-19T06:54:58;100883.81;;;14.49;81.06
81802;BME280;71199;52.490;5.448;2023-09-19T06:57:23;100888.28;;;14.50;80.91
81802;BME280;71199;52.490;5.448;2023-09-19T06:59:49;100891.00;;;14.43;80.73
81802;BME280;71199;52.490;5.448;2023-09-19T07:02:15;100886.69;;;14.41;81.55
81802;BME280;71199;52.490;5.448;2023-09-19T07:04:40;100892.75;;;14.51;81.58
81802;BME280;71199;52.490;5.448;2023-09-19T07:07:06;100882.53;;;14.51;81.33
81802;BME280;71199;52.490;5.448;2023-09-19T07:09:34;100897.56;;;14.64;81.21
81802;BME280;71199;52.490;5.448;2023-09-19T07:12:00;100897.06;;;14.75;80.90
81802;BME280;71199;52.490;5.448;2023-09-19T07:14:25;100909.25;;;14.81;80.64
81802;BME280;71199;52.490;5.448;2023-09-19T07:16:51;100908.13;;;14.75;80.59
81802;BME280;71199;52.490;5.448;2023-09-19T07:19:17;100909.16;;;14.74;81.17
81802;BME280;71199;52.490;5.448;2023-09-19T07:21:42;100908.78;;;14.77;80.95
81802;BME280;71199;52.490;5.448;2023-09-19T07:24:08;100898.59;;;14.84;80.85
81802;BME280;71199;52.490;5.448;2023-09-19T07:26:33;100914.81;;;14.87;80.72
81802;BME280;71199;52.490;5.448;2023-09-19T07:28:59;100908.72;;;14.99;80.82
81802;BME280;71199;52.490;5.448;2023-09-19T07:31:25;100911.81;;;15.10;80.14
81802;BME280;71199;52.490;5.448;2023-09-19T07:33:50;100920.75;;;15.13;79.37
81802;BME280;71199;52.490;5.448;2023-09-19T07:36:16;100923.56;;;15.19;80.31
81802;BME280;71199;52.490;5.448;2023-09-19T07:38:42;100918.28;;;15.24;80.10
81802;BME280;71199;52.490;5.448;2023-09-19T07:41:08;100926.41;;;15.26;79.51
81802;BME280;71199;52.490;5.448;2023-09-19T07:43:36;100921.25;;;15.23;79.81
81802;BME280;71199;52.490;5.448;2023-09-19T07:46:07;100914.88;;;15.22;79.79
81802;BME280;71199;52.490;5.448;2023-09-19T07:48:36;100917.97;;;15.41;80.06
81802;BME280;71199;52.490;5.448;2023-09-19T07:51:04;100929.81;;;15.63;79.46
81802;BME280;71199;52.490;5.448;2023-09-19T07:53:30;100922.88;;;15.45;79.17
81802;BME280;71199;52.490;5.448;2023-09-19T07:56:06;100922.50;;;15.48;79.45
81802;BME280;71199;52.490;5.448;2023-09-19T07:58:32;100923.38;;;15.56;78.98
81802;BME280;71199;52.490;5.448;2023-09-19T08:01:08;100920.25;;;15.65;79.33
81802;BME280;71199;52.490;5.448;2023-09-19T08:03:36;100924.72;;;15.66;78.68
81802;BME280;71199;52.490;5.448;2023-09-19T08:06:06;100929.19;;;16.02;78.62
81802;BME280;71199;52.490;5.448;2023-09-19T08:08:35;100922.81;;;16.08;77.48
81802;BME280;71199;52.490;5.448;2023-09-19T08:11:05;100915.59;;;16.21;77.05
81802;BME280;71199;52.490;5.448;2023-09-19T08:13:38;100912.44;;;16.37;76.88
81802;BME280;71199;52.490;5.448;2023-09-19T08:16:08;100914.38;;;16.50;76.24
81802;BME280;71199;52.490;5.448;2023-09-19T08:18:34;100911.41;;;16.51;75.73
81802;BME280;71199;52.490;5.448;2023-09-19T08:20:59;100903.28;;;16.63;75.02
81802;BME280;71199;52.490;5.448;2023-09-19T08:23:26;100896.47;;;16.79;74.75
81802;BME280;71199;52.490;5.448;2023-09-19T08:25:56;100909.72;;;16.84;73.98
81802;BME280;71199;52.490;5.448;2023-09-19T08:28:21;100910.34;;;16.79;73.87
81802;BME280;71199;52.490;5.448;2023-09-19T08:30:50;100905.88;;;16.91;73.24
81802;BME280;71199;52.490;5.448;2023-09-19T08:33:16;100904.81;;;16.99;73.26
81802;BME280;71199;52.490;5.448;2023-09-19T08:35:42;100905.47;;;16.95;72.67
81802;BME280;71199;52.490;5.448;2023-09-19T08:38:08;100901.63;;;16.89;73.41
81802;BME280;71199;52.490;5.448;2023-09-19T08:40:37;100903.06;;;16.71;74.06
81802;BME280;71199;52.490;5.448;2023-09-19T08:43:05;100906.28;;;16.75;73.37
81802;BME280;71199;52.490;5.448;2023-09-19T08:45:32;100905.44;;;16.75;74.19
81802;BME280;71199;52.490;5.448;2023-09-19T08:48:24;100911.44;;;16.85;73.66
81802;BME280;71199;52.490;5.448;2023-09-19T08:53:34;100919.94;;;17.23;72.63
81802;BME280;71199;52.490;5.448;2023-09-19T08:56:03;100909.28;;;17.20;72.63
81802;BME280;71199;52.490;5.448;2023-09-19T08:58:55;100911.84;;;17.15;72.86
81802;BME280;71199;52.490;5.448;2023-09-19T09:01:23;100904.09;;;17.44;72.05
81802;BME280;71199;52.490;5.448;2023-09-19T09:03:53;100904.06;;;17.57;72.34
81802;BME280;71199;52.490;5.448;2023-09-19T09:06:23;100913.47;;;17.56;72.44
81802;BME280;71199;52.490;5.448;2023-09-19T09:08:52;100906.63;;;17.52;71.43
81802;BME280;71199;52.490;5.448;2023-09-19T09:11:18;100902.59;;;17.55;71.86
81802;BME280;71199;52.490;5.448;2023-09-19T09:13:44;100899.84;;;17.41;70.57
81802;BME280;71199;52.490;5.448;2023-09-19T09:16:10;100888.31;;;17.31;71.69
81802;BME280;71199;52.490;5.448;2023-09-19T09:18:36;100892.97;;;17.44;71.37
81802;BME280;71199;52.490;5.448;2023-09-19T09:21:02;100901.78;;;17.41;71.26
81802;BME280;71199;52.490;5.448;2023-09-19T09:23:29;100902.59;;;17.48;71.55
81802;BME280;71199;52.490;5.448;2023-09-19T09:25:55;100903.69;;;17.47;71.81
81802;BME280;71199;52.490;5.448;2023-09-19T09:28:45;100908.78;;;17.57;71.48
81802;BME280;71199;52.490;5.448;2023-09-19T09:31:22;100907.66;;;17.64;71.92
81802;BME280;71199;52.490;5.448;2023-09-19T09:33:55;100903.69;;;17.47;70.83
81802;BME280;71199;52.490;5.448;2023-09-19T09:36:40;100893.63;;;17.46;69.83
81802;BME280;71199;52.490;5.448;2023-09-19T09:39:08;100908.78;;;17.50;70.16
81802;BME280;71199;52.490;5.448;2023-09-19T09:41:44;100903.22;;;17.63;69.81
81802;BME280;71199;52.490;5.448;2023-09-19T09:44:14;100905.09;;;17.69;68.87
81802;BME280;71199;52.490;5.448;2023-09-19T09:46:46;100897.88;;;17.55;69.92
81802;BME280;71199;52.490;5.448;2023-09-19T09:49:25;100901.97;;;17.52;69.96
81802;BME280;71199;52.490;5.448;2023-09-19T09:52:01;100895.38;;;17.40;69.54
81802;BME280;71199;52.490;5.448;2023-09-19T09:54:31;100896.22;;;17.41;70.36
81802;BME280;71199;52.490;5.448;2023-09-19T09:57:03;100900.91;;;17.47;69.87
81802;BME280;71199;52.490;5.448;2023-09-19T09:59:54;100882.31;;;17.41;69.95
81802;BME280;71199;52.490;5.448;2023-09-19T10:02:38;100889.34;;;17.50;70.29
81802;BME280;71199;52.490;5.448;2023-09-19T10:05:21;100884.88;;;17.36;70.23
81802;BME280;71199;52.490;5.448;2023-09-19T10:07:52;100890.19;;;17.57;69.26
81802;BME280;71199;52.490;5.448;2023-09-19T10:10:31;100892.31;;;17.55;69.80
81802;BME280;71199;52.490;5.448;2023-09-19T10:13:07;100877.75;;;17.66;69.91
81802;BME280;71199;52.490;5.448;2023-09-19T10:15:42;100885.44;;;17.64;69.88
81802;BME280;71199;52.490;5.448;2023-09-19T10:18:19;100873.91;;;17.67;69.53
81802;BME280;71199;52.490;5.448;2023-09-19T10:20:45;100873.44;;;17.70;69.77
81802;BME280;71199;52.490;5.448;2023-09-19T10:23:12;100866.09;;;17.96;69.16
81802;BME280;71199;52.490;5.448;2023-09-19T10:25:43;100857.22;;;17.67;68.18
81802;BME280;71199;52.490;5.448;2023-09-19T10:28:12;100858.69;;;17.83;69.60
81802;BME280;71199;52.490;5.448;2023-09-19T10:30:46;100848.53;;;18.02;68.83
81802;BME280;71199;52.490;5.448;2023-09-19T10:33:17;100834.69;;;17.89;68.69
81802;BME280;71199;52.490;5.448;2023-09-19T10:35:44;100840.38;;;18.07;69.44
81802;BME280;71199;52.490;5.448;2023-09-19T10:38:12;100834.53;;;18.16;68.77
81802;BME280;71199;52.490;5.448;2023-09-19T10:40:38;100835.41;;;18.16;69.03
81802;BME280;71199;52.490;5.448;2023-09-19T10:43:13;100815.06;;;18.22;67.25
81802;BME280;71199;52.490;5.448;2023-09-19T10:45:44;100822.03;;;18.31;67.67
81802;BME280;71199;52.490;5.448;2023-09-19T10:48:10;100827.53;;;18.38;67.51
81802;BME280;71199;52.490;5.448;2023-09-19T10:50:50;100825.03;;;18.30;68.71
81802;BME280;71199;52.490;5.448;2023-09-19T10:53:17;100827.94;;;18.42;68.01
81802;BME280;71199;52.490;5.448;2023-09-19T10:55:56;100823.00;;;18.44;67.17
81802;BME280;71199;52.490;5.448;2023-09-19T10:58:26;100817.31;;;18.32;66.79
81802;BME280;71199;52.490;5.448;2023-09-19T11:03:22;100799.22;;;18.23;66.74
81802;BME280;71199;52.490;5.448;2023-09-19T11:08:53;100797.13;;;18.11;67.14
81802;BME280;71199;52.490;5.448;2023-09-19T11:14:29;100803.94;;;18.16;67.18
81802;BME280;71199;52.490;5.448;2023-09-19T11:30:31;100798.84;;;18.12;67.11
81802;BME280;71199;52.490;5.448;2023-09-19T11:46:30;100781.09;;;18.89;66.18
81802;BME280;71199;52.490;5.448;2023-09-19T11:49:05;100782.97;;;18.95;65.36
81802;BME280;71199;52.490;5.448;2023-09-19T11:51:40;100772.53;;;19.09;65.44
81802;BME280;71199;52.490;5.448;2023-09-19T11:54:10;100785.13;;;18.93;64.74
81802;BME280;71199;52.490;5.448;2023-09-19T11:56:51;100784.50;;;18.91;65.31
81802;BME280;71199;52.490;5.448;2023-09-19T11:59:26;100777.63;;;18.68;65.03
81802;BME280;71199;52.490;5.448;2023-09-19T12:01:54;100778.91;;;18.47;65.68
81802;BME280;71199;52.490;5.448;2023-09-19T12:04:43;100779.81;;;18.41;65.88
81802;BME280;71199;52.490;5.448;2023-09-19T12:07:11;100779.63;;;18.36;67.59
81802;BME280;71199;52.490;5.448;2023-09-19T12:10:02;100788.94;;;18.48;66.78
81802;BME280;71199;52.490;5.448;2023-09-19T12:12:29;100796.31;;;18.36;65.90
81802;BME280;71199;52.490;5.448;2023-09-19T12:14:56;100790.31;;;18.39;67.24
81802;BME280;71199;52.490;5.448;2023-09-19T12:17:39;100785.44;;;18.35;66.73
81802;BME280;71199;52.490;5.448;2023-09-19T12:20:09;100784.63;;;18.27;67.29
81802;BME280;71199;52.490;5.448;2023-09-19T12:22:41;100777.00;;;18.16;67.46
81802;BME280;71199;52.490;5.448;2023-09-19T12:25:09;100781.28;;;18.19;67.64
81802;BME280;71199;52.490;5.448;2023-09-19T12:27:50;100766.72;;;18.17;67.27
81802;BME280;71199;52.490;5.448;2023-09-19T12:30:18;100780.22;;;18.13;67.81
81802;BME280;71199;52.490;5.448;2023-09-19T12:32:45;100787.53;;;18.07;68.17
81802;BME280;71199;52.490;5.448;2023-09-19T12:35:30;100781.41;;;17.99;68.29
81802;BME280;71199;52.490;5.448;2023-09-19T12:37:55;100791.75;;;17.85;68.22
81802;BME280;71199;52.490;5.448;2023-09-19T12:40:22;100803.28;;;17.82;69.06
81802;BME280;71199;52.490;5.448;2023-09-19T12:42:53;100792.47;;;17.67;69.35
81802;BME280;71199;52.490;5.448;2023-09-19T12:45:23;100802.91;;;17.71;69.42
81802;BME280;71199;52.490;5.448;2023-09-19T12:48:24;100782.84;;;17.69;69.71
81802;BME280;71199;52.490;5.448;2023-09-19T12:51:12;100799.22;;;17.84;69.56
81802;BME280;71199;52.490;5.448;2023-09-19T12:53:44;100785.06;;;17.92;69.32
81802;BME280;71199;52.490;5.448;2023-09-19T12:56:13;100784.13;;;18.05;69.03
81802;BME280;71199;52.490;5.448;2023-09-19T12:58:53;100793.09;;;18.07;68.77
81802;BME280;71199;52.490;5.448;2023-09-19T13:01:19;100788.00;;;18.04;69.17
81802;BME280;71199;52.490;5.448;2023-09-19T13:03:45;100787.59;;;18.01;69.31
81802;BME280;71199;52.490;5.448;2023-09-19T13:06:11;100777.66;;;18.11;69.60
81802;BME280;71199;52.490;5.448;2023-09-19T13:08:38;100787.34;;;18.34;68.38
81802;BME280;71199;52.490;5.448;2023-09-19T13:11:18;100779.44;;;18.56;67.92
81802;BME280;71199;52.490;5.448;2023-09-19T13:13:45;100762.91;;;18.61;67.01
81802;BME280;71199;52.490;5.448;2023-09-19T13:16:13;100778.38;;;18.82;66.73
81802;BME280;71199;52.490;5.448;2023-09-19T13:18:48;100774.28;;;18.85;66.66
81802;BME280;71199;52.490;5.448;2023-09-19T13:21:17;100777.47;;;18.88;66.62
81802;BME280;71199;52.490;5.448;2023-09-19T13:23:50;100771.59;;;18.97;67.17
81802;BME280;71199;52.490;5.448;2023-09-19T13:26:15;100764.41;;;19.07;66.79
81802;BME280;71199;52.490;5.448;2023-09-19T13:28:41;100779.94;;;18.97;67.77
81802;BME280;71199;52.490;5.448;2023-09-19T13:31:06;100770.59;;;18.66;68.71
81802;BME280;71199;52.490;5.448;2023-09-19T13:33:33;100764.28;;;18.52;68.40
81802;BME280;71199;52.490;5.448;2023-09-19T13:35:59;100774.47;;;18.40;69.02
81802;BME280;71199;52.490;5.448;2023-09-19T13:38:24;100748.91;;;18.49;69.34
81802;BME280;71199;52.490;5.448;2023-09-19T13:40:50;100772.88;;;18.50;69.01
81802;BME280;71199;52.490;5.448;2023-09-19T13:43:17;100776.75;;;18.49;68.98
81802;BME280;71199;52.490;5.448;2023-09-19T13:45:43;100770.28;;;18.30;68.69
81802;BME280;71199;52.490;5.448;2023-09-19T13:48:08;100757.28;;;18.24;69.44
81802;BME280;71199;52.490;5.448;2023-09-19T13:50:34;100767.31;;;18.25;69.20
81802;BME280;71199;52.490;5.448;2023-09-19T13:53:01;100761.97;;;18.24;69.24
81802;BME280;71199;52.490;5.448;2023-09-19T13:55:27;100775.25;;;18.22;69.78